Time;durP1;ratioP1;P1;durP2;ratioP2;P2;SDS_P1;SDS_P2;PMS_P1;PMS_P2;Temp;Humidity;BMP_temperature;BMP_pressure;BME280_temperature;BME280_humidity;BME280_pressure;Samples;Min_cycle;Max_cycle;Signal;HPM_P1;HPM_P2
2022/10/07 03:03:17;;;;;;;14.60;4.47;;;;;;;8.42;56.95;102180.69;5140340;23;20067;-65
2022/10/07 03:05:48;;;;;;;19.60;4.03;;;;;;;8.52;56.44;102185.25;4934088;29;20079;-65
2022/10/07 03:08:14;;;;;;;16.98;4.88;;;;;;;8.60;56.46;102188.22;4933276;29;20070;-65
2022/10/07 03:10:41;;;;;;;14.48;4.00;;;;;;;8.61;56.41;102176.59;4938614;29;20057;-65
2022/10/07 03:13:08;;;;;;;11.48;3.42;;;;;;;8.67;56.29;102171.72;4953134;29;20057;-65
2022/10/07 03:15:36;;;;;;;10.07;3.58;;;;;;;8.32;57.35;102173.31;4953726;29;20051;-64
2022/10/07 03:18:24;;;;;;;10.77;4.20;;;;;;;8.44;56.73;102168.94;4952820;29;20047;-65
2022/10/07 03:20:54;;;;;;;13.65;3.85;;;;;;;8.77;55.91;102173.63;4929068;29;20056;-65
2022/10/07 03:23:24;;;;;;;13.98;4.10;;;;;;;8.81;56.01;102163.53;4922497;29;20054;-65
2022/10/07 03:25:52;;;;;;;18.45;4.70;;;;;;;8.84;55.49;102160.66;4934098;29;20040;-65
2022/10/07 03:28:21;;;;;;;15.48;3.85;;;;;;;8.88;55.28;102162.13;4933997;29;20046;-65
2022/10/07 03:30:48;;;;;;;19.30;4.57;;;;;;;9.03;55.04;102169.03;4933199;29;20051;-65
2022/10/07 03:33:17;;;;;;;33.42;4.95;;;;;;;8.94;55.16;102169.69;4933678;29;20078;-65
2022/10/07 03:35:43;;;;;;;11.07;3.92;;;;;;;8.95;55.11;102160.69;4933106;29;20043;-65
2022/10/07 03:38:11;;;;;;;12.77;3.58;;;;;;;8.79;55.57;102158.31;4913152;29;20444;-66
2022/10/07 03:40:38;;;;;;;11.75;4.07;;;;;;;8.92;55.41;102165.41;4915150;29;20052;-65
2022/10/07 03:43:06;;;;;;;14.88;3.97;;;;;;;8.22;56.48;102161.56;4915263;29;20507;-65
2022/10/07 03:45:36;;;;;;;9.60;3.65;;;;;;;8.43;56.44;102145.81;4914628;29;20123;-65
2022/10/07 03:48:03;;;;;;;18.87;3.90;;;;;;;8.55;56.00;102147.59;4914676;29;20055;-65
2022/10/07 03:50:30;;;;;;;13.40;4.13;;;;;;;8.17;57.05;102144.19;4914086;29;20060;-65
2022/10/07 03:52:56;;;;;;;9.70;3.95;;;;;;;7.82;57.47;102144.81;4913610;29;20056;-65
2022/10/07 03:55:23;;;;;;;15.20;3.97;;;;;;;7.54;58.89;102140.53;4913872;29;20050;-65
2022/10/07 03:57:49;;;;;;;14.75;4.50;;;;;;;7.92;57.86;102132.56;4914251;29;20476;-65
2022/10/07 04:00:24;;;;;;;12.90;4.07;;;;;;;7.70;58.42;102133.16;4914732;29;20052;-65
2022/10/07 04:02:51;;;;;;;18.70;4.70;;;;;;;7.54;59.01;102136.06;4912981;29;20444;-65
2022/10/07 04:05:19;;;;;;;15.68;4.10;;;;;;;7.51;59.18;102138.06;4913806;29;20058;-64
2022/10/07 04:07:48;;;;;;;14.32;4.60;;;;;;;7.24;59.53;102130.97;4913568;29;20051;-64
2022/10/07 04:10:16;;;;;;;14.38;4.22;;;;;;;7.03;60.60;102130.63;4920557;29;20039;-64
2022/10/07 04:12:43;;;;;;;13.70;4.38;;;;;;;7.18;60.16;102129.56;4952350;29;20058;-65
2022/10/07 04:15:13;;;;;;;9.50;3.83;;;;;;;7.37;59.69;102128.34;4952652;29;20054;-65
2022/10/07 04:17:40;;;;;;;17.77;4.72;;;;;;;7.23;60.48;102134.63;4952593;29;20439;-64
2022/10/07 04:20:08;;;;;;;16.80;4.22;;;;;;;7.22;60.39;102124.88;4952705;29;20050;-63
2022/10/07 04:22:35;;;;;;;14.65;4.07;;;;;;;7.52;59.42;102127.28;4952050;29;20047;-64
2022/10/07 04:27:55;;;;;;;12.43;4.28;;;;;;;7.57;59.18;102125.16;4951998;29;20058;-64
2022/10/07 04:30:24;;;;;;;15.95;4.82;;;;;;;7.62;59.35;102115.00;4951248;29;20130;-64
2022/10/07 04:32:51;;;;;;;24.90;5.22;;;;;;;7.45;59.54;102117.97;4951774;29;20054;-63
2022/10/07 04:35:22;;;;;;;17.63;5.18;;;;;;;7.27;60.12;102124.59;4951995;29;20052;-64
2022/10/07 04:37:50;;;;;;;16.30;4.55;;;;;;;7.21;60.25;102123.19;4952332;29;20062;-63
2022/10/07 04:40:18;;;;;;;15.40;4.18;;;;;;;7.42;60.01;102115.53;4951794;29;20439;-63
2022/10/07 04:45:32;;;;;;;13.25;4.25;;;;;;;6.97;61.20;102112.34;4951770;29;20052;-65
2022/10/07 04:48:00;;;;;;;18.52;4.53;;;;;;;7.03;61.21;102111.09;4951999;29;20051;-64
2022/10/07 04:50:27;;;;;;;12.63;4.47;;;;;;;7.18;60.64;102102.88;4952024;29;20047;-64
2022/10/07 04:52:54;;;;;;;13.50;5.50;;;;;;;6.95;61.11;102095.59;4951663;29;20058;-64
2022/10/07 04:55:20;;;;;;;14.50;4.72;;;;;;;7.03;61.00;102095.94;4952048;29;20043;-62
2022/10/07 04:57:48;;;;;;;23.58;4.68;;;;;;;7.28;60.59;102105.78;4953572;29;20051;-61
2022/10/07 05:00:15;;;;;;;13.90;4.65;;;;;;;6.99;61.17;102093.59;4952919;29;20051;-61
2022/10/07 05:02:43;;;;;;;19.35;4.35;;;;;;;7.03;61.22;102087.06;4952537;29;20059;-62
2022/10/07 05:05:09;;;;;;;19.55;5.05;;;;;;;7.15;60.73;102100.44;4952856;29;20059;-61
2022/10/07 05:07:36;;;;;;;19.05;5.05;;;;;;;7.07;60.83;102096.56;4952712;29;20043;-63
2022/10/07 05:10:03;;;;;;;22.30;5.57;;;;;;;6.73;62.00;102085.50;4952176;29;20058;-61
2022/10/07 05:12:30;;;;;;;14.30;4.65;;;;;;;6.98;61.19;102084.72;4953180;29;20048;-61
2022/10/07 05:14:57;;;;;;;13.68;4.97;;;;;;;7.07;60.98;102085.91;4951773;29;20059;-62
2022/10/07 05:17:24;;;;;;;20.25;6.10;;;;;;;6.99;61.00;102083.75;4952448;29;20398;-61
2022/10/07 05:19:50;;;;;;;17.45;5.68;;;;;;;7.03;60.87;102079.91;4953321;29;20054;-63
2022/10/07 05:22:17;;;;;;;12.40;4.95;;;;;;;6.77;61.76;102078.13;4955422;28;20050;-61
2022/10/07 05:24:43;;;;;;;19.20;5.40;;;;;;;6.90;61.61;102084.38;4956311;29;20419;-60
2022/10/07 05:27:12;;;;;;;18.23;5.10;;;;;;;6.91;61.64;102081.63;4956463;29;20063;-61
2022/10/07 05:29:39;;;;;;;18.30;5.30;;;;;;;6.91;61.19;102075.41;4956784;29;20054;-60
2022/10/07 05:32:05;;;;;;;16.27;5.10;;;;;;;6.78;61.85;102074.53;4955971;29;20472;-61
2022/10/07 05:34:32;;;;;;;21.35;5.90;;;;;;;6.58;62.56;102062.50;4956245;29;20462;-61
2022/10/07 05:36:58;;;;;;;14.85;4.90;;;;;;;6.69;62.48;102062.66;4955640;29;20055;-62
2022/10/07 05:39:25;;;;;;;13.07;4.95;;;;;;;6.46;63.15;102058.84;4947003;29;20098;-61
2022/10/07 05:41:51;;;;;;;19.27;6.18;;;;;;;6.79;61.99;102046.91;4939200;29;20066;-62
2022/10/07 05:44:21;;;;;;;15.75;5.20;;;;;;;6.94;61.78;102061.84;4955747;29;20411;-62
2022/10/07 05:46:48;;;;;;;17.30;6.32;;;;;;;6.89;61.61;102053.31;4954802;29;20047;-63
2022/10/07 05:49:14;;;;;;;32.92;6.40;;;;;;;6.50;62.85;102044.38;4956025;29;20051;-63
2022/10/07 05:51:41;;;;;;;14.18;5.60;;;;;;;6.87;62.08;102064.06;4955651;29;20122;-61
2022/10/07 05:54:07;;;;;;;15.25;6.07;;;;;;;6.27;63.15;102058.34;4955695;29;20103;-60
2022/10/07 05:56:35;;;;;;;22.33;5.25;;;;;;;6.09;64.34;102049.69;4956091;29;20047;-60
2022/10/07 05:59:03;;;;;;;20.77;6.18;;;;;;;6.34;63.54;102048.97;4955790;29;20051;-62
2022/10/07 06:01:29;;;;;;;13.27;5.78;;;;;;;6.17;64.04;102050.91;4954478;29;20047;-63
2022/10/07 06:03:56;;;;;;;15.38;6.00;;;;;;;6.18;64.30;102055.28;4955241;29;20061;-62
2022/10/07 06:06:24;;;;;;;20.77;5.88;;;;;;;6.10;64.83;102056.72;4938544;29;20047;-66
2022/10/07 06:08:52;;;;;;;15.18;5.50;;;;;;;6.38;64.08;102061.16;4955868;29;20054;-61
2022/10/07 06:14:05;;;;;;;12.77;5.28;;;;;;;6.14;64.87;102063.56;4935646;29;20050;-62
2022/10/07 06:16:31;;;;;;;18.02;6.13;;;;;;;6.26;64.94;102051.31;4936019;29;20047;-61
2022/10/07 06:18:58;;;;;;;23.85;5.85;;;;;;;6.45;64.33;102049.13;4936363;29;20107;-61
2022/10/07 06:21:26;;;;;;;17.48;6.60;;;;;;;6.34;64.33;102059.66;4936132;29;20047;-60
2022/10/07 06:23:55;;;;;;;23.52;8.32;;;;;;;6.64;64.04;102054.13;4936029;29;20519;-62
2022/10/07 06:26:22;;;;;;;24.08;8.30;;;;;;;6.78;63.14;102054.03;4929372;29;20051;-61
2022/10/07 06:28:49;;;;;;;20.92;7.85;;;;;;;6.94;62.85;102053.84;4936315;29;20570;-62
2022/10/07 06:31:21;;;;;;;18.42;7.75;;;;;;;7.07;62.64;102041.38;4935420;29;20395;-63
2022/10/07 06:33:48;;;;;;;20.45;6.55;;;;;;;6.85;63.02;102043.81;4933792;29;20437;-63
2022/10/07 06:36:16;;;;;;;16.08;7.13;;;;;;;7.13;62.44;102046.31;4934784;29;20050;-63
2022/10/07 06:38:47;;;;;;;13.73;6.65;;;;;;;7.10;62.88;102053.69;4916320;29;20499;-63
2022/10/07 06:41:17;;;;;;;21.80;6.78;;;;;;;6.94;63.19;102048.50;4925257;29;20058;-63
2022/10/07 06:43:44;;;;;;;18.02;6.68;;;;;;;7.24;62.40;102050.91;4931503;29;21566;-63
2022/10/07 06:46:14;;;;;;;26.38;7.00;;;;;;;7.41;61.87;102047.91;4934949;29;20082;-63
2022/10/07 06:48:43;;;;;;;28.85;6.97;;;;;;;7.65;61.39;102052.50;4935379;29;20130;-63
2022/10/07 06:51:13;;;;;;;14.63;6.13;;;;;;;7.58;61.26;102057.41;4934977;29;20052;-63
2022/10/07 06:53:40;;;;;;;25.67;6.72;;;;;;;7.93;60.68;102053.25;4935178;29;20059;-63
2022/10/07 06:56:08;;;;;;;15.25;5.70;;;;;;;8.01;60.11;102049.03;4934311;29;20055;-63
2022/10/07 06:58:35;;;;;;;24.25;6.55;;;;;;;8.64;58.60;102049.75;4935882;29;20044;-62
2022/10/07 07:01:02;;;;;;;14.25;5.90;;;;;;;8.89;57.74;102043.41;4915326;29;20048;-62
2022/10/07 07:03:29;;;;;;;16.52;6.03;;;;;;;9.81;55.73;102049.63;4931545;29;20047;-63
2022/10/07 07:05:56;;;;;;;22.95;5.60;;;;;;;9.95;54.96;102044.00;4935857;29;20522;-64
2022/10/07 07:08:30;;;;;;;24.02;6.55;;;;;;;10.95;52.12;102046.53;4936058;29;20051;-63
2022/10/07 07:13:55;;;;;;;31.60;5.45;;;;;;;11.49;49.61;102053.50;4935023;29;20048;-62
2022/10/07 07:16:23;;;;;;;18.20;6.30;;;;;;;11.92;48.64;102055.13;4935423;29;20063;-62
2022/10/07 07:18:52;;;;;;;22.35;5.78;;;;;;;12.14;48.59;102054.03;4934658;29;20067;-61
2022/10/07 07:21:18;;;;;;;13.43;5.50;;;;;;;12.33;47.79;102051.41;4933982;29;20048;-61
2022/10/07 07:23:45;;;;;;;15.32;6.22;;;;;;;12.68;46.89;102050.03;4934743;29;20052;-62
2022/10/07 07:26:12;;;;;;;23.48;5.22;;;;;;;12.67;46.80;102047.47;4931671;29;20057;-62
2022/10/07 07:28:38;;;;;;;18.42;5.55;;;;;;;12.97;46.10;102049.19;4934794;29;20044;-63
2022/10/07 07:31:09;;;;;;;13.80;5.40;;;;;;;12.46;47.08;102047.63;4934996;29;20127;-62
2022/10/07 07:33:37;;;;;;;23.77;5.80;;;;;;;12.93;45.91;102040.53;4934564;29;20047;-62
2022/10/07 07:36:15;;;;;;;20.85;6.13;;;;;;;13.15;45.74;102042.06;4934607;29;20052;-63
2022/10/07 07:38:42;;;;;;;16.42;5.53;;;;;;;13.51;44.72;102045.78;4934560;29;20060;-63
2022/10/07 07:41:09;;;;;;;13.13;4.93;;;;;;;13.53;44.72;102037.56;4935186;29;20067;-63
2022/10/07 07:43:36;;;;;;;17.25;4.45;;;;;;;13.50;44.53;102030.63;4934759;29;20047;-62
2022/10/07 07:46:03;;;;;;;16.60;4.78;;;;;;;14.26;43.09;102033.09;4934990;29;20062;-63
2022/10/07 07:48:30;;;;;;;18.73;5.10;;;;;;;13.53;44.50;102024.09;4933874;29;20071;-61
2022/10/07 07:50:56;;;;;;;17.90;5.25;;;;;;;14.23;42.28;102024.47;4934371;29;20051;-61
2022/10/07 07:53:23;;;;;;;12.00;4.82;;;;;;;14.39;42.57;102034.56;4934732;29;20047;-61
2022/10/07 07:55:54;;;;;;;20.23;5.35;;;;;;;14.73;41.83;102032.88;4933537;29;20055;-61
2022/10/07 07:58:23;;;;;;;13.45;4.38;;;;;;;15.30;40.31;102034.34;4934086;29;20056;-62
2022/10/07 08:01:00;;;;;;;18.27;4.68;;;;;;;15.82;39.63;102024.31;4934560;29;20073;-61
2022/10/07 08:03:27;;;;;;;9.35;3.97;;;;;;;15.17;40.47;102024.78;4931582;29;20131;-63
2022/10/07 08:05:53;;;;;;;15.35;4.60;;;;;;;15.24;40.29;102016.88;4933939;29;20074;-61
2022/10/07 08:08:21;;;;;;;15.60;4.45;;;;;;;16.13;38.97;102015.63;4934591;29;20054;-61
2022/10/07 08:10:47;;;;;;;13.65;4.40;;;;;;;16.03;39.17;102018.47;4934903;29;20131;-61
2022/10/07 08:13:17;;;;;;;18.83;4.03;;;;;;;15.40;40.48;102013.44;4933918;29;20086;-61
2022/10/07 08:15:43;;;;;;;13.45;4.50;;;;;;;16.47;38.58;102014.66;4934068;29;20047;-60
2022/10/07 08:18:10;;;;;;;18.40;3.97;;;;;;;16.22;38.82;102020.03;4933650;29;20146;-61
2022/10/07 08:20:37;;;;;;;15.63;4.55;;;;;;;16.97;37.51;102011.81;4933854;29;20048;-62
2022/10/07 08:23:05;;;;;;;18.45;4.38;;;;;;;16.69;37.78;102010.47;4934154;29;20052;-62
2022/10/07 08:25:31;;;;;;;12.88;3.75;;;;;;;17.57;36.66;102000.50;4933253;29;20048;-61
2022/10/07 08:27:58;;;;;;;12.20;4.53;;;;;;;17.23;36.91;102008.88;4933068;29;20063;-62
2022/10/07 08:30:25;;;;;;;11.55;4.35;;;;;;;17.49;36.29;101999.69;4933852;29;20056;-62
2022/10/07 08:32:51;;;;;;;15.25;4.70;;;;;;;17.69;36.51;101998.25;4933590;29;20161;-61
2022/10/07 08:35:21;;;;;;;16.13;4.30;;;;;;;17.39;36.40;101997.19;4932856;29;20050;-61
2022/10/07 08:37:47;;;;;;;16.83;4.75;;;;;;;17.54;36.46;101990.00;4929632;29;20061;-61
2022/10/07 08:40:16;;;;;;;20.52;4.55;;;;;;;18.01;36.17;101986.38;4933552;29;20055;-61
2022/10/07 08:42:43;;;;;;;7.72;3.28;;;;;;;18.75;34.53;101988.56;4923561;29;20423;-66
2022/10/07 08:45:21;;;;;;;9.85;3.67;;;;;;;19.27;33.63;101985.00;4927963;29;20056;-65
2022/10/07 08:47:50;;;;;;;12.43;3.90;;;;;;;19.37;32.90;101977.41;4933825;29;20048;-64
2022/10/07 08:50:23;;;;;;;44.80;5.63;;;;;;;19.94;32.64;101978.59;4933173;29;20052;-64
2022/10/07 08:52:54;;;;;;;12.77;3.35;;;;;;;19.98;32.70;101977.19;4932055;29;20061;-64
2022/10/07 08:55:59;;;;;;;;;;;;;;;19.78;32.05;101966.03;4933967;29;20063;-63
2022/10/07 08:58:45;;;;;;;14.10;3.53;;;;;;;19.95;31.97;101966.66;4837304;29;20369;-64
2022/10/07 09:01:38;;;;;;;15.70;3.33;;;;;;;20.18;31.84;101966.50;4841301;29;20053;-64
2022/10/07 09:04:43;;;;;;;19.08;4.57;;;;;;;19.78;32.40;101957.03;4834515;29;20045;-64
2022/10/07 09:07:18;;;;;;;11.82;3.55;;;;;;;19.65;32.76;101957.69;4841189;29;20486;-65
2022/10/07 09:09:53;;;;;;;13.15;3.50;;;;;;;19.52;32.40;101949.34;4840940;29;20053;-64
2022/10/07 09:12:28;;;;;;;11.50;3.63;;;;;;;19.84;32.09;101956.28;4822222;29;20955;-64
2022/10/07 09:14:56;;;;;;;12.05;2.67;;;;;;;20.71;30.39;101941.63;4823066;29;20054;-65
2022/10/07 09:17:35;;;;;;;13.50;3.08;;;;;;;21.43;29.66;101938.53;4822739;29;20050;-65
2022/10/07 09:20:15;;;;;;;12.15;3.03;;;;;;;21.05;29.98;101928.03;4822038;29;20061;-65
2022/10/07 09:22:49;;;;;;;8.43;2.78;;;;;;;20.66;30.29;101929.44;4822448;29;20057;-64
2022/10/07 09:25:21;;;;;;;9.38;3.00;;;;;;;19.85;31.20;101926.13;4822661;29;20054;-63
2022/10/07 09:27:50;;;;;;;10.60;2.72;;;;;;;19.94;30.97;101926.84;4822458;29;20046;-63
2022/10/07 09:30:18;;;;;;;11.60;2.67;;;;;;;20.25;31.12;101925.66;4892829;29;20052;-64
2022/10/07 09:32:48;;;;;;;12.18;3.35;;;;;;;20.43;30.33;101917.91;4898246;29;20044;-62
2022/10/07 09:35:20;;;;;;;10.70;2.42;;;;;;;20.87;29.92;101912.19;4898530;29;20500;-64
2022/10/07 09:38:02;;;;;;;9.05;2.63;;;;;;;21.32;29.46;101909.06;4897798;29;20080;-64
2022/10/07 09:40:34;;;;;;;15.27;3.50;;;;;;;22.07;28.00;101901.75;4897800;29;20048;-64
2022/10/07 09:43:12;;;;;;;14.63;2.53;;;;;;;21.98;27.87;101913.94;4898235;29;20067;-64
2022/10/07 09:45:45;;;;;;;11.93;2.78;;;;;;;22.64;27.37;101899.50;4896912;29;20164;-65
2022/10/07 09:48:22;;;;;;;9.32;2.38;;;;;;;22.16;27.62;101889.59;4893116;29;20052;-64
2022/10/07 09:50:49;;;;;;;9.10;2.60;;;;;;;21.66;28.26;101894.50;4897839;29;20060;-64
2022/10/07 09:53:27;;;;;;;8.63;3.00;;;;;;;21.66;28.45;101889.03;4891760;29;20059;-65
2022/10/07 09:55:54;;;;;;;6.32;2.15;;;;;;;21.35;28.38;101890.41;4899014;29;20054;-64
2022/10/07 09:58:29;;;;;;;10.32;2.83;;;;;;;20.95;29.11;101889.34;4896945;29;20056;-64
2022/10/07 10:01:00;;;;;;;7.93;2.30;;;;;;;22.24;27.37;101886.63;4897446;29;20404;-66
2022/10/07 10:03:36;;;;;;;16.48;2.38;;;;;;;22.87;26.60;101885.34;4904874;29;20411;-65
2022/10/07 10:06:07;;;;;;;11.65;2.42;;;;;;;21.47;28.46;101881.63;4906806;29;20087;-64
2022/10/07 10:08:41;;;;;;;10.63;3.55;;;;;;;21.72;28.41;101888.22;4916058;29;20389;-65
2022/10/07 10:11:16;;;;;;;15.80;2.78;;;;;;;21.98;27.62;101876.53;4916481;29;20087;-64
2022/10/07 10:13:43;;;;;;;8.98;2.50;;;;;;;21.83;27.71;101873.97;4917073;29;20056;-64
2022/10/07 10:16:24;;;;;;;12.45;2.80;;;;;;;21.72;27.90;101874.56;4907192;29;20048;-65
2022/10/07 10:19:01;;;;;;;12.55;2.25;;;;;;;21.60;28.12;101866.13;4916597;29;20048;-64
2022/10/07 10:21:35;;;;;;;14.52;3.33;;;;;;;22.30;27.70;101854.91;4916764;29;20457;-64
2022/10/07 10:24:05;;;;;;;25.05;3.10;;;;;;;21.82;28.38;101864.09;4915181;29;20067;-69
2022/10/07 10:26:40;;;;;;;8.25;2.65;;;;;;;21.59;28.05;101852.69;4917476;29;20043;-68
2022/10/07 10:29:39;;;;;;;11.63;2.80;;;;;;;21.24;29.07;101844.59;4909580;29;20075;-64
2022/10/07 10:32:19;;;;;;;8.95;2.42;;;;;;;22.04;28.11;101844.78;4915180;29;20059;-65
2022/10/07 10:35:01;;;;;;;10.88;2.50;;;;;;;22.31;27.74;101843.75;4915935;29;20048;-64
2022/10/07 10:37:39;;;;;;;;;;;;;;;21.75;28.61;101841.38;4917113;29;20572;-64
2022/10/07 10:40:17;;;;;;;8.15;2.05;;;;;;;21.53;28.66;101837.13;4909610;29;20291;-65
2022/10/07 10:43:02;;;;;;;11.20;2.22;;;;;;;22.19;27.88;101829.03;4915862;29;20048;-65
2022/10/07 10:45:38;;;;;;;11.55;2.60;;;;;;;21.31;29.02;101818.16;4916805;29;20056;-65
2022/10/07 10:48:30;;;;;;;11.57;3.17;;;;;;;22.91;27.22;101813.53;4915024;29;20048;-65
2022/10/07 10:51:04;;;;;;;7.85;2.05;;;;;;;22.01;27.76;101806.94;4919288;29;20051;-64
2022/10/07 10:53:39;;;;;;;18.13;2.53;;;;;;;22.90;27.23;101809.13;4935072;29;20506;-65
2022/10/07 10:56:46;;;;;;;8.05;2.30;;;;;;;21.78;28.04;101794.53;4948374;28;20047;-65
2022/10/07 10:59:32;;;;;;;9.02;2.70;;;;;;;22.07;26.83;101789.72;4944388;29;20055;-62
2022/10/07 11:02:37;;;;;;;9.60;2.00;;;;;;;22.06;27.16;101777.13;4954667;28;20043;-65
2022/10/07 11:05:35;;;;;;;12.40;2.60;;;;;;;22.37;26.66;101772.88;4925881;29;20487;-66
2022/10/07 11:08:14;;;;;;;9.20;2.13;;;;;;;22.07;26.72;101762.41;4933925;29;20086;-64
2022/10/07 11:10:49;;;;;;;8.15;2.20;;;;;;;22.36;26.05;101776.66;4927408;29;20045;-65
2022/10/07 11:13:32;;;;;;;11.77;2.60;;;;;;;21.74;27.06;101763.22;4915321;29;20051;-64
2022/10/07 11:16:19;;;;;;;13.93;2.58;;;;;;;21.60;26.73;101756.91;4916017;29;20439;-64
2022/10/07 11:18:53;;;;;;;7.43;1.88;;;;;;;21.69;26.73;101746.59;4914835;29;20048;-65
2022/10/07 11:21:38;;;;;;;9.00;2.25;;;;;;;23.20;25.20;101745.69;4906373;29;20447;-65
2022/10/07 11:24:10;;;;;;;11.90;2.35;;;;;;;23.44;24.99;101741.31;4915247;29;20428;-65
2022/10/07 11:26:40;;;;;;;;;;;;;;;24.18;24.46;101729.50;4915796;29;20052;-65
2022/10/07 11:29:31;;;;;;;13.43;2.65;;;;;;;24.38;24.01;101721.09;4915095;29;19923;-65
2022/10/07 11:32:11;;;;;;;12.43;2.42;;;;;;;23.35;24.79;101723.47;4915697;29;20044;-63
2022/10/07 11:34:55;;;;;;;8.23;2.33;;;;;;;24.14;23.95;101720.06;4914953;29;20055;-65
2022/10/07 11:37:48;;;;;;;9.43;2.30;;;;;;;23.36;25.24;101716.91;4915609;29;20052;-65
2022/10/07 11:40:15;;;;;;;10.43;2.65;;;;;;;23.46;25.16;101711.78;4915349;29;20055;-66
2022/10/07 11:42:48;;;;;;;11.02;2.97;;;;;;;23.16;25.50;101706.94;4912525;29;20084;-64
2022/10/07 11:45:21;;;;;;;8.60;2.10;;;;;;;23.78;24.32;101698.94;4914420;29;20044;-64
2022/10/07 11:48:03;;;;;;;11.63;2.50;;;;;;;23.93;24.28;101701.31;4915629;29;20040;-64
2022/10/07 11:50:35;;;;;;;11.40;2.67;;;;;;;25.12;22.74;101688.91;4915612;29;20123;-65
2022/10/07 11:53:08;;;;;;;9.68;2.20;;;;;;;23.86;24.45;101687.66;4914749;29;20048;-64
2022/10/07 11:55:44;;;;;;;12.27;2.70;;;;;;;24.29;23.34;101677.72;4914336;29;20048;-67
2022/10/07 11:58:25;;;;;;;10.32;2.30;;;;;;;24.77;23.88;101679.69;4914559;29;20047;-68
2022/10/07 12:01:24;;;;;;;14.95;3.22;;;;;;;24.24;24.47;101677.56;4914179;29;20056;-68
2022/10/07 12:04:15;;;;;;;9.50;2.85;;;;;;;25.31;22.50;101666.88;4912995;29;20047;-68
2022/10/07 12:07:19;;;;;;;10.48;2.70;;;;;;;24.05;23.86;101652.88;4913399;29;20048;-68
2022/10/07 12:10:06;;;;;;;10.20;2.53;;;;;;;23.56;24.44;101654.59;4913389;29;20044;-67
2022/10/07 12:12:42;;;;;;;8.40;2.47;;;;;;;23.39;24.61;101653.50;4896854;29;20051;-67
2022/10/07 12:15:41;;;;;;;9.30;2.40;;;;;;;22.14;26.17;101648.44;4914253;29;20551;-69
2022/10/07 12:18:09;;;;;;;12.75;2.47;;;;;;;21.08;27.53;101656.66;4913071;29;20044;-68
2022/10/07 12:20:43;;;;;;;8.35;2.30;;;;;;;19.67;29.29;101637.97;4914639;29;20044;-67
2022/10/07 12:23:16;;;;;;;8.40;2.78;;;;;;;19.50;30.32;101634.69;4913093;29;20048;-67
2022/10/07 12:25:47;;;;;;;11.77;2.10;;;;;;;19.65;29.58;101631.84;4912435;29;20407;-68
2022/10/07 12:28:40;;;;;;;8.35;2.63;;;;;;;19.89;29.84;101630.56;4914195;29;20070;-69
2022/10/07 12:31:22;;;;;;;13.32;2.88;;;;;;;20.91;28.36;101629.78;4914242;29;20080;-68
2022/10/07 12:33:54;;;;;;;;;;;;;;;21.82;26.93;101620.16;4913063;29;20127;-69
2022/10/07 12:36:28;;;;;;;6.28;1.90;;;;;;;23.12;25.32;101615.41;4904589;29;19939;-69
2022/10/07 12:38:54;;;;;;;7.80;2.45;;;;;;;24.88;23.61;101607.53;4911032;29;20051;-69
2022/10/07 12:41:24;;;;;;;14.73;2.78;;;;;;;24.71;23.54;101609.25;4902639;29;20660;-69
2022/10/07 12:44:29;;;;;;;12.88;2.58;;;;;;;24.78;23.05;101604.50;4911474;29;20492;-67
2022/10/07 12:47:01;;;;;;;7.82;2.05;;;;;;;24.82;22.58;101595.59;4913141;29;20056;-68
2022/10/07 12:49:38;;;;;;;10.25;3.17;;;;;;;22.86;24.94;101602.69;4913679;29;20044;-67
2022/10/07 12:52:13;;;;;;;11.30;2.13;;;;;;;21.72;26.12;101604.19;4910276;29;20051;-67
2022/10/07 12:54:47;;;;;;;7.97;2.20;;;;;;;18.98;30.11;101586.09;4904804;29;20048;-67
2022/10/07 12:57:20;;;;;;;7.80;2.20;;;;;;;17.93;32.14;101597.38;4911696;29;20048;-68
2022/10/07 13:00:12;;;;;;;8.32;2.42;;;;;;;17.91;32.42;101583.97;4911958;29;20044;-67
2022/10/07 13:02:42;;;;;;;6.97;2.30;;;;;;;17.46;33.34;101569.53;4913779;29;20048;-67
2022/10/07 13:05:28;;;;;;;5.95;1.58;;;;;;;17.50;33.04;101570.84;4886952;29;20051;-67
2022/10/07 13:08:14;;;;;;;9.50;2.20;;;;;;;17.46;32.91;101568.69;4911488;29;20052;-67
2022/10/07 13:11:07;;;;;;;6.10;2.00;;;;;;;16.71;34.62;101558.63;4925462;29;20047;-66
2022/10/07 13:13:51;;;;;;;7.05;2.22;;;;;;;16.71;34.55;101555.91;4948900;29;20473;-67
2022/10/07 13:16:30;;;;;;;8.05;2.15;;;;;;;16.50;34.91;101562.81;4951612;29;20400;-67
2022/10/07 13:19:13;;;;;;;6.30;1.75;;;;;;;16.88;34.21;101560.19;4951175;29;20051;-67
2022/10/07 13:21:48;;;;;;;13.98;1.77;;;;;;;16.19;34.64;101555.56;4942364;29;20047;-66
2022/10/07 13:24:21;;;;;;;8.80;2.08;;;;;;;16.56;34.53;101547.75;4951764;29;20054;-69
2022/10/07 13:26:48;;;;;;;9.73;1.80;;;;;;;16.23;34.95;101556.03;4951189;29;20051;-66
2022/10/07 13:29:27;;;;;;;9.05;1.95;;;;;;;16.57;34.36;101547.53;4951951;29;20043;-67
2022/10/07 13:32:12;;;;;;;4.88;1.90;;;;;;;16.66;33.61;101551.88;4951603;29;20058;-66
2022/10/07 13:34:40;;;;;;;15.75;2.03;;;;;;;17.08;32.86;101550.53;4950634;29;20424;-66
2022/10/07 13:37:33;;;;;;;5.47;1.63;;;;;;;16.25;33.38;101548.56;4950725;29;20048;-66
2022/10/07 13:40:19;;;;;;;7.57;1.95;;;;;;;16.32;33.02;101544.13;4929043;29;20052;-66
2022/10/07 13:42:54;;;;;;;6.57;1.80;;;;;;;16.10;33.14;101544.94;4904867;29;20055;-65
2022/10/07 13:45:21;;;;;;;4.93;1.75;;;;;;;16.18;33.46;101548.44;4916219;29;20045;-67
2022/10/07 13:47:48;;;;;;;10.10;1.77;;;;;;;16.65;32.92;101528.53;4916942;29;20048;-67
2022/10/07 13:50:21;;;;;;;8.60;2.47;;;;;;;16.40;33.37;101529.69;4916492;29;20393;-67
2022/10/07 13:52:49;;;;;;;9.75;2.40;;;;;;;16.03;32.86;101525.84;4924717;29;20488;-67
2022/10/07 13:55:29;;;;;;;9.15;3.05;;;;;;;16.28;33.18;101525.72;4935112;29;20048;-69
2022/10/07 13:57:59;;;;;;;15.07;2.78;;;;;;;16.52;33.33;101517.47;4935750;29;20047;-66
2022/10/07 14:00:31;;;;;;;5.97;2.08;;;;;;;16.25;33.04;101516.06;4935530;29;20051;-67
2022/10/07 14:03:00;;;;;;;6.07;2.00;;;;;;;16.47;33.04;101509.00;4921493;29;20059;-67
2022/10/07 14:05:30;;;;;;;9.20;2.20;;;;;;;16.26;33.89;101506.91;4925354;29;20554;-67
2022/10/07 14:07:59;;;;;;;9.77;2.35;;;;;;;16.26;33.54;101506.91;4934896;29;20059;-67
2022/10/07 14:10:28;;;;;;;12.65;2.40;;;;;;;16.26;33.50;101497.97;4934838;29;20054;-67
2022/10/07 14:13:08;;;;;;;8.65;2.08;;;;;;;15.84;34.43;101493.78;4935237;29;20058;-68
2022/10/07 14:15:35;;;;;;;8.25;2.50;;;;;;;16.29;34.12;101494.91;4933919;29;20051;-67
2022/10/07 14:18:10;;;;;;;6.57;2.00;;;;;;;16.19;34.18;101490.56;4934116;29;20047;-67
2022/10/07 14:20:44;;;;;;;14.18;3.50;;;;;;;16.32;34.40;101475.59;4935158;29;20518;-67
2022/10/07 14:23:32;;;;;;;10.13;3.50;;;;;;;16.02;34.73;101477.28;4934451;29;20058;-67
2022/10/07 14:26:10;;;;;;;11.40;3.05;;;;;;;16.08;34.41;101476.59;4934699;29;20051;-67
2022/10/07 14:28:38;;;;;;;10.75;2.60;;;;;;;16.05;34.79;101464.25;4934975;29;20161;-66
2022/10/07 14:37:16;;;;;;;8.20;2.20;;;;;;;15.97;34.24;101461.59;4934641;29;20044;-66
2022/10/07 14:39:47;;;;;;;10.75;2.80;;;;;;;15.81;34.57;101451.72;4935365;29;20119;-64
2022/10/07 14:42:17;;;;;;;10.48;2.45;;;;;;;15.58;35.22;101446.22;4924160;29;20059;-67
2022/10/07 14:44:44;;;;;;;11.55;2.10;;;;;;;15.81;34.90;101446.31;4933949;29;20475;-66
2022/10/07 14:47:14;;;;;;;6.32;2.10;;;;;;;15.82;34.88;101444.44;4933653;29;20043;-66
2022/10/07 14:49:43;;;;;;;7.30;2.20;;;;;;;15.78;34.88;101443.09;4933714;29;20054;-66
2022/10/07 14:52:16;;;;;;;8.63;1.70;;;;;;;15.81;34.82;101440.91;4933410;29;20048;-66
2022/10/07 14:54:43;;;;;;;14.18;2.85;;;;;;;15.67;34.95;101433.50;4933488;29;20154;-67
2022/10/07 14:57:10;;;;;;;6.50;2.25;;;;;;;15.70;34.62;101436.69;4933976;29;20052;-66
2022/10/07 14:59:36;;;;;;;10.90;2.65;;;;;;;15.93;34.52;101430.50;4933926;29;20055;-66
2022/10/07 15:02:03;;;;;;;7.72;2.72;;;;;;;15.38;35.19;101426.00;4933241;29;20415;-67
2022/10/07 15:04:29;;;;;;;13.07;2.88;;;;;;;15.37;35.27;101425.16;4927364;29;20052;-65
2022/10/07 15:06:56;;;;;;;11.10;2.20;;;;;;;15.64;34.88;101421.19;4933652;29;20086;-67
2022/10/07 15:09:23;;;;;;;11.65;2.20;;;;;;;15.63;35.14;101418.66;4933390;29;20051;-67